Time;durP1;ratioP1;P1;durP2;ratioP2;P2;SDS_P1;SDS_P2;PMS_P1;PMS_P2;Temp;Humidity;BMP_temperature;BMP_pressure;BME280_temperature;BME280_humidity;BME280_pressure;Samples;Min_cycle;Max_cycle;Signal;HPM_P1;HPM_P2
2022/07/18 00:00:59;;;;;;;1.67;1.10;;;17.30;68.00;;;;;;4358013;28;10000668;-76
2022/07/18 00:03:25;;;;;;;2.35;1.10;;;17.20;68.50;;;;;;5064688;28;20111;-76
2022/07/18 00:05:51;;;;;;;3.05;1.15;;;17.20;68.80;;;;;;5066001;28;20111;-75
2022/07/18 00:08:17;;;;;;;1.50;1.00;;;17.10;68.60;;;;;;5064915;28;20399;-76
2022/07/18 00:10:42;;;;;;;3.25;1.10;;;17.10;68.30;;;;;;5069620;28;20406;-75
2022/07/18 00:13:09;;;;;;;3.25;1.00;;;17.00;68.40;;;;;;5056188;28;20249;-75
2022/07/18 00:15:36;;;;;;;2.80;1.20;;;16.90;68.90;;;;;;5073850;28;20054;-75
2022/07/18 00:18:02;;;;;;;2.80;1.15;;;16.90;69.40;;;;;;5069566;28;20028;-75
2022/07/18 00:20:29;;;;;;;2.45;1.20;;;16.80;69.40;;;;;;5075824;28;20036;-75
2022/07/18 00:22:54;;;;;;;1.70;1.10;;;16.80;69.90;;;;;;5059114;28;20477;-75
2022/07/18 00:25:20;;;;;;;1.55;1.17;;;16.60;70.40;;;;;;5066024;28;20113;-75
2022/07/18 00:27:46;;;;;;;1.40;0.80;;;16.60;71.00;;;;;;5056871;28;20029;-76
2022/07/18 00:30:12;;;;;;;1.75;0.90;;;16.50;71.80;;;;;;5052714;28;20473;-75
2022/07/18 00:32:37;;;;;;;1.10;0.98;;;16.40;72.10;;;;;;5062126;28;20021;-75
2022/07/18 00:35:03;;;;;;;1.63;0.80;;;16.30;72.20;;;;;;5068336;28;20040;-75
2022/07/18 00:37:29;;;;;;;3.88;1.20;;;16.30;72.40;;;;;;5064351;28;20044;-75
2022/07/18 00:39:54;;;;;;;1.63;0.90;;;16.20;72.50;;;;;;5059516;28;20035;-75
2022/07/18 00:42:21;;;;;;;1.70;1.00;;;16.20;72.70;;;;;;5053115;28;20025;-75
2022/07/18 00:44:46;;;;;;;2.03;1.00;;;16.10;72.90;;;;;;5048889;28;20107;-76
2022/07/18 00:47:12;;;;;;;1.38;0.90;;;16.00;73.10;;;;;;5059632;28;20120;-76
2022/07/18 00:49:37;;;;;;;0.73;0.70;;;16.00;73.50;;;;;;5059152;28;20027;-75
2022/07/18 00:52:04;;;;;;;0.70;0.70;;;16.00;73.70;;;;;;5063369;28;20028;-75
2022/07/18 00:54:32;;;;;;;1.75;0.98;;;15.90;73.60;;;;;;5057409;28;20036;-75
2022/07/18 00:56:59;;;;;;;1.48;0.70;;;15.90;73.50;;;;;;5064596;28;20031;-75
2022/07/18 01:01:42;;;;;;;1.88;1.00;;;15.80;73.60;;;;;;5064829;28;20042;-76
2022/07/18 01:02:10;;;;;;;1.52;0.82;;;15.80;74.00;;;;;;5071452;28;20040;-75
2022/07/18 01:04:36;;;;;;;1.42;0.82;;;15.80;73.90;;;;;;5061959;28;20038;-76
2022/07/18 01:07:02;;;;;;;0.80;0.80;;;15.80;74.10;;;;;;5056881;28;20485;-75
2022/07/18 01:09:28;;;;;;;3.22;1.15;;;15.90;73.70;;;;;;5060579;28;20044;-76
2022/07/18 01:11:53;;;;;;;3.35;1.23;;;15.90;73.30;;;;;;5083762;28;20559;-76
2022/07/18 01:14:19;;;;;;;2.10;1.00;;;16.00;73.10;;;;;;5050819;28;20029;-75
2022/07/18 01:16:45;;;;;;;1.58;1.00;;;16.00;74.10;;;;;;5062498;28;20115;-76
2022/07/18 01:19:11;;;;;;;2.83;0.90;;;15.90;74.40;;;;;;5068553;28;20112;-75
2022/07/18 01:21:38;;;;;;;0.90;0.80;;;15.80;74.40;;;;;;5068739;28;20596;-76
2022/07/18 01:24:05;;;;;;;1.67;0.82;;;15.70;74.90;;;;;;5053332;28;20039;-76
2022/07/18 01:26:30;;;;;;;1.77;1.08;;;15.60;75.20;;;;;;5054382;28;20477;-76
2022/07/18 01:28:56;;;;;;;0.88;0.80;;;15.60;75.70;;;;;;5060327;28;20032;-75
2022/07/18 01:31:22;;;;;;;1.10;0.70;;;15.60;76.20;;;;;;5064054;28;20043;-75
2022/07/18 01:33:47;;;;;;;3.13;0.90;;;15.50;76.40;;;;;;5053735;28;20116;-75
2022/07/18 01:36:13;;;;;;;1.90;0.90;;;15.50;76.30;;;;;;5064703;28;20033;-75
2022/07/18 01:38:39;;;;;;;2.10;0.85;;;15.40;76.70;;;;;;5057537;28;20238;-76
2022/07/18 01:41:05;;;;;;;2.33;0.98;;;15.40;76.90;;;;;;5059572;28;20028;-75
2022/07/18 01:43:31;;;;;;;3.00;1.30;;;15.30;76.90;;;;;;5066603;28;20476;-75
2022/07/18 01:45:56;;;;;;;4.22;1.10;;;15.30;77.20;;;;;;5063146;28;20023;-75
2022/07/18 01:48:23;;;;;;;1.73;1.08;;;15.20;77.80;;;;;;5064701;28;20063;-75
2022/07/18 01:50:49;;;;;;;1.98;1.10;;;15.20;77.80;;;;;;5059502;28;20808;-76
2022/07/18 01:53:15;;;;;;;1.80;1.00;;;15.10;78.30;;;;;;5061111;28;20029;-75
2022/07/18 01:55:40;;;;;;;2.33;0.93;;;15.10;78.70;;;;;;5063500;28;20030;-75
2022/07/18 01:58:06;;;;;;;2.08;1.20;;;15.10;78.80;;;;;;5059170;28;20113;-75
2022/07/18 02:00:32;;;;;;;2.47;1.02;;;15.10;78.50;;;;;;5067981;28;20020;-76
2022/07/18 02:02:57;;;;;;;1.42;0.88;;;15.20;78.00;;;;;;5080631;28;20512;-76
2022/07/18 02:05:23;;;;;;;2.58;0.90;;;15.30;77.50;;;;;;5057408;28;20013;-75
2022/07/18 02:07:49;;;;;;;1.08;0.95;;;15.40;77.50;;;;;;5055616;28;20023;-75
2022/07/18 02:10:21;;;;;;;3.45;1.05;;;15.40;77.60;;;;;;5047895;28;20481;-76
2022/07/18 02:12:47;;;;;;;1.42;0.80;;;15.30;78.00;;;;;;5056145;28;20437;-76
2022/07/18 02:15:14;;;;;;;2.55;1.30;;;15.30;79.10;;;;;;5055885;28;20501;-76
2022/07/18 02:17:40;;;;;;;3.47;1.33;;;15.30;78.50;;;;;;5058510;28;20477;-76
2022/07/18 02:20:08;;;;;;;2.47;1.48;;;15.30;78.70;;;;;;5069754;28;20020;-75
2022/07/18 02:22:34;;;;;;;2.70;1.60;;;15.40;78.40;;;;;;5074757;28;20045;-75
2022/07/18 02:25:00;;;;;;;2.50;1.20;;;15.50;78.10;;;;;;5062789;28;20095;-76
2022/07/18 02:27:25;;;;;;;3.13;1.20;;;15.40;78.70;;;;;;5067458;28;20025;-75
2022/07/18 02:29:51;;;;;;;3.00;1.20;;;15.40;79.60;;;;;;5057213;28;20048;-76
2022/07/18 02:32:17;;;;;;;2.47;1.25;;;15.30;80.40;;;;;;5056671;28;20111;-76
2022/07/18 02:34:44;;;;;;;1.95;1.00;;;15.10;81.00;;;;;;5060780;28;20025;-75
2022/07/18 02:37:10;;;;;;;2.63;1.10;;;15.10;81.40;;;;;;5079000;28;20044;-75
2022/07/18 02:39:36;;;;;;;1.98;1.20;;;15.00;82.00;;;;;;5059797;28;20036;-75
2022/07/18 02:42:02;;;;;;;3.17;1.40;;;15.00;82.40;;;;;;5066990;28;20035;-75
2022/07/18 02:44:28;;;;;;;1.30;1.02;;;14.90;82.40;;;;;;5058782;28;21012;-75
2022/07/18 02:46:54;;;;;;;1.88;1.20;;;14.80;83.10;;;;;;5061507;28;20047;-75
2022/07/18 02:49:28;;;;;;;2.08;1.20;;;14.70;83.50;;;;;;5070030;28;20036;-75
2022/07/18 02:52:03;;;;;;;1.90;1.20;;;14.70;84.10;;;;;;5060561;28;20853;-75
2022/07/18 02:54:31;;;;;;;2.28;1.30;;;14.70;85.40;;;;;;5066384;28;20029;-75
2022/07/18 02:56:57;;;;;;;1.58;1.10;;;14.60;85.60;;;;;;5068602;28;20217;-75
2022/07/18 02:59:23;;;;;;;2.20;0.90;;;14.50;86.30;;;;;;5068651;28;20063;-75
2022/07/18 03:01:49;;;;;;;2.97;0.93;;;14.50;86.90;;;;;;5058725;28;20076;-75
2022/07/18 03:04:16;;;;;;;1.17;1.05;;;14.40;87.60;;;;;;5064108;28;20155;-75
2022/07/18 03:06:41;;;;;;;2.00;1.10;;;14.40;88.10;;;;;;5052540;28;20056;-76
2022/07/18 03:09:07;;;;;;;1.40;1.10;;;14.40;88.50;;;;;;5046089;28;20581;-75
2022/07/18 03:11:32;;;;;;;1.95;1.10;;;14.30;88.80;;;;;;5057402;28;20062;-76
2022/07/18 03:13:58;;;;;;;1.92;1.20;;;14.30;89.30;;;;;;5067054;28;20568;-75
2022/07/18 03:16:24;;;;;;;1.67;0.90;;;14.20;89.90;;;;;;5070146;28;20167;-75
2022/07/18 03:18:49;;;;;;;2.78;1.20;;;14.20;90.20;;;;;;5053357;28;20098;-75
2022/07/18 03:21:15;;;;;;;1.77;1.05;;;14.10;90.60;;;;;;5067416;28;20298;-75
2022/07/18 03:23:41;;;;;;;2.05;1.17;;;14.10;90.90;;;;;;5055744;28;20456;-75
2022/07/18 03:26:06;;;;;;;1.92;1.20;;;14.20;91.20;;;;;;5061030;28;20103;-75
2022/07/18 03:28:32;;;;;;;2.13;0.90;;;14.20;91.40;;;;;;5070107;28;20025;-76
2022/07/18 03:30:58;;;;;;;3.15;1.30;;;14.10;91.30;;;;;;5071487;28;20464;-76
2022/07/18 03:33:25;;;;;;;1.55;1.10;;;14.00;91.60;;;;;;5066717;28;20035;-76
2022/07/18 03:35:50;;;;;;;1.92;1.10;;;14.00;92.20;;;;;;5085875;28;20058;-76
2022/07/18 03:38:16;;;;;;;1.75;1.05;;;14.00;92.60;;;;;;5060818;28;20049;-76
2022/07/18 03:40:41;;;;;;;1.75;0.93;;;14.00;92.90;;;;;;5057886;28;20454;-76
2022/07/18 03:43:07;;;;;;;1.67;1.10;;;14.00;93.10;;;;;;5053317;28;20032;-76
2022/07/18 03:45:33;;;;;;;4.63;1.40;;;14.00;93.10;;;;;;5069220;28;20025;-76
2022/07/18 03:47:58;;;;;;;1.88;1.13;;;14.10;93.10;;;;;;5053613;28;20067;-77
2022/07/18 03:50:24;;;;;;;2.17;1.33;;;14.10;93.10;;;;;;5050723;28;20029;-75
2022/07/18 03:52:49;;;;;;;3.47;1.73;;;14.10;93.30;;;;;;5056383;28;20061;-76
2022/07/18 03:55:15;;;;;;;3.22;1.55;;;14.20;93.20;;;;;;5066921;28;20439;-76
2022/07/18 03:57:41;;;;;;;4.97;1.70;;;14.20;93.40;;;;;;5054215;28;20082;-76
2022/07/18 04:00:09;;;;;;;3.08;1.70;;;14.20;93.70;;;;;;5070894;28;20036;-75
2022/07/18 04:02:41;;;;;;;3.55;1.80;;;14.20;93.60;;;;;;5052836;28;20028;-75
2022/07/18 04:05:08;;;;;;;5.60;1.88;;;14.30;93.70;;;;;;5064601;28;20016;-75
2022/07/18 04:07:34;;;;;;;3.17;1.63;;;14.30;94.10;;;;;;5058561;28;20025;-75
2022/07/18 04:09:59;;;;;;;2.67;1.63;;;14.40;94.30;;;;;;5065107;28;20476;-76
2022/07/18 04:12:25;;;;;;;5.22;1.67;;;14.40;94.60;;;;;;5069105;28;20028;-75
2022/07/18 04:14:50;;;;;;;4.72;2.10;;;14.40;94.60;;;;;;5068791;28;20121;-76
2022/07/18 04:17:16;;;;;;;3.53;1.40;;;14.50;95.00;;;;;;5073438;28;20024;-75
2022/07/18 04:19:42;;;;;;;5.55;1.52;;;15.50;93.80;;;;;;5064801;28;20071;-75
2022/07/18 04:22:07;;;;;;;2.53;1.30;;;17.10;90.60;;;;;;5078892;28;20120;-75
2022/07/18 04:24:33;;;;;;;2.95;1.23;;;18.50;85.10;;;;;;5056436;28;20112;-76
2022/07/18 04:26:59;;;;;;;4.20;1.33;;;19.90;79.80;;;;;;5063471;28;20119;-75
2022/07/18 04:29:25;;;;;;;1.92;1.25;;;21.00;74.90;;;;;;5054500;28;20025;-76
2022/07/18 04:31:51;;;;;;;2.03;1.40;;;21.90;70.30;;;;;;5043191;28;20036;-76
2022/07/18 04:34:17;;;;;;;4.50;1.67;;;22.70;67.50;;;;;;5074369;28;20098;-76
2022/07/18 04:36:42;;;;;;;4.78;2.40;;;23.20;65.50;;;;;;5077303;28;20568;-76
2022/07/18 04:39:08;;;;;;;3.20;1.80;;;23.30;64.40;;;;;;5074167;28;20028;-76
2022/07/18 04:41:34;;;;;;;5.82;2.50;;;22.70;66.00;;;;;;5061717;28;20123;-76
2022/07/18 04:43:59;;;;;;;4.13;2.00;;;21.70;68.00;;;;;;5060708;28;20500;-76
2022/07/18 04:46:25;;;;;;;3.20;1.80;;;20.80;70.00;;;;;;5069690;28;20029;-76
2022/07/18 04:48:51;;;;;;;5.88;2.08;;;20.10;72.80;;;;;;5082966;28;20023;-75
2022/07/18 04:51:16;;;;;;;4.70;2.20;;;19.40;75.50;;;;;;5062689;28;20448;-76
2022/07/18 04:53:42;;;;;;;4.03;2.30;;;18.90;78.20;;;;;;5078407;28;20512;-76
2022/07/18 04:56:08;;;;;;;3.80;2.25;;;18.40;80.10;;;;;;5071262;28;20354;-76
2022/07/18 04:58:33;;;;;;;5.20;2.70;;;17.80;81.70;;;;;;5061367;28;20033;-76
2022/07/18 05:00:59;;;;;;;5.10;3.03;;;17.50;83.60;;;;;;5079004;28;20028;-76
2022/07/18 05:03:24;;;;;;;5.25;2.80;;;17.20;85.70;;;;;;5057068;28;20024;-76
2022/07/18 05:05:50;;;;;;;3.83;2.10;;;17.10;86.60;;;;;;5085574;28;20503;-76
2022/07/18 05:08:16;;;;;;;4.00;2.05;;;17.10;87.70;;;;;;5056332;28;20044;-76
2022/07/18 05:10:41;;;;;;;3.75;1.83;;;17.00;88.20;;;;;;5085997;28;20512;-76
2022/07/18 05:13:07;;;;;;;2.00;1.80;;;16.90;88.40;;;;;;5070984;28;20033;-76
2022/07/18 05:15:32;;;;;;;4.07;1.83;;;16.90;88.90;;;;;;5049380;28;20021;-76
2022/07/18 05:17:58;;;;;;;3.78;2.00;;;16.80;90.10;;;;;;5058315;28;20506;-76
2022/07/18 05:20:26;;;;;;;5.63;2.20;;;16.90;90.40;;;;;;5065860;28;20175;-76
2022/07/18 05:22:53;;;;;;;3.63;2.20;;;16.90;90.20;;;;;;5067388;28;20020;-75
2022/07/18 05:25:21;;;;;;;5.20;2.13;;;16.90;89.30;;;;;;5047886;28;20077;-76
2022/07/18 05:27:47;;;;;;;3.63;2.00;;;17.00;89.20;;;;;;5080905;28;20036;-76
2022/07/18 05:30:14;;;;;;;4.05;2.00;;;17.10;89.40;;;;;;5046676;28;20023;-76
2022/07/18 05:32:40;;;;;;;3.47;1.90;;;17.10;89.10;;;;;;5052528;28;20024;-76
2022/07/18 05:35:07;;;;;;;4.30;2.40;;;17.20;89.00;;;;;;5057834;28;20027;-75
2022/07/18 05:37:35;;;;;;;4.50;1.88;;;17.20;88.70;;;;;;5063551;28;20074;-75
2022/07/18 05:40:02;;;;;;;3.10;1.92;;;17.20;89.60;;;;;;5062120;28;20451;-75
2022/07/18 05:42:27;;;;;;;3.03;2.00;;;17.10;89.50;;;;;;5052979;28;20051;-75
2022/07/18 05:44:53;;;;;;;3.75;1.73;;;17.00;90.20;;;;;;5053663;28;20533;-75
2022/07/18 05:47:19;;;;;;;4.38;2.40;;;17.00;90.00;;;;;;5050366;28;20029;-75
2022/07/18 05:49:44;;;;;;;5.47;2.50;;;17.10;89.50;;;;;;5055187;28;20031;-75
2022/07/18 05:52:10;;;;;;;5.72;2.47;;;17.10;89.70;;;;;;5052660;28;20377;-76
2022/07/18 05:54:35;;;;;;;4.85;2.45;;;17.20;90.00;;;;;;5056270;28;20057;-76
2022/07/18 05:57:01;;;;;;;4.47;2.67;;;17.20;90.00;;;;;;5061682;28;20025;-77
2022/07/18 05:59:27;;;;;;;4.53;2.42;;;17.20;90.00;;;;;;5047696;28;20037;-77
2022/07/18 06:01:52;;;;;;;5.32;2.38;;;17.40;89.60;;;;;;5044328;28;20079;-77
2022/07/18 06:04:18;;;;;;;5.20;2.25;;;17.40;89.60;;;;;;5047387;28;20029;-77
2022/07/18 06:06:44;;;;;;;4.40;2.40;;;17.40;90.10;;;;;;5050397;28;20159;-77
2022/07/18 06:09:10;;;;;;;3.60;1.90;;;17.40;90.20;;;;;;5056855;28;20106;-77
2022/07/18 06:11:36;;;;;;;5.88;2.45;;;17.40;90.60;;;;;;5063302;28;20504;-78
2022/07/18 06:14:02;;;;;;;5.95;2.40;;;17.40;90.40;;;;;;5052689;28;20257;-78
2022/07/18 06:16:29;;;;;;;4.05;2.33;;;17.40;90.10;;;;;;5072636;28;20017;-78
2022/07/18 06:18:56;;;;;;;4.93;2.15;;;17.40;90.20;;;;;;5065110;28;20534;-78
2022/07/18 06:21:21;;;;;;;4.85;2.30;;;17.40;90.40;;;;;;5064193;28;20061;-79
2022/07/18 06:23:47;;;;;;;6.70;2.28;;;17.40;90.60;;;;;;5055983;28;20118;-78
2022/07/18 06:26:13;;;;;;;6.05;2.30;;;17.50;90.70;;;;;;5053871;28;20095;-78
2022/07/18 06:28:38;;;;;;;5.10;2.13;;;17.50;90.70;;;;;;5053876;28;20107;-78
2022/07/18 06:31:04;;;;;;;4.32;2.10;;;17.50;90.80;;;;;;5065719;28;20388;-78
2022/07/18 06:33:30;;;;;;;4.40;2.20;;;17.50;90.60;;;;;;5073483;28;20028;-78
2022/07/18 06:35:57;;;;;;;3.78;2.10;;;17.60;90.50;;;;;;5063663;28;20054;-78
2022/07/18 06:38:22;;;;;;;2.83;2.10;;;17.70;90.20;;;;;;5082936;28;20519;-78
2022/07/18 06:40:48;;;;;;;8.50;2.38;;;17.80;89.50;;;;;;5050415;28;20111;-78
2022/07/18 06:43:19;;;;;;;4.90;2.30;;;18.00;88.50;;;;;;5046838;28;20023;-78
2022/07/18 06:45:45;;;;;;;4.55;2.50;;;18.30;88.30;;;;;;5060633;28;20017;-78
2022/07/18 06:48:11;;;;;;;7.25;2.15;;;18.50;88.00;;;;;;5047945;28;20036;-77
2022/07/18 06:50:36;;;;;;;3.85;1.95;;;18.70;87.10;;;;;;5061747;28;20036;-78
2022/07/18 06:53:02;;;;;;;5.72;2.03;;;19.00;86.20;;;;;;5051626;28;20617;-78
2022/07/18 06:55:28;;;;;;;4.75;1.90;;;19.40;84.60;;;;;;5054733;28;20025;-78
2022/07/18 06:57:53;;;;;;;4.28;1.83;;;19.70;82.70;;;;;;5049959;28;20064;-78
2022/07/18 07:00:19;;;;;;;2.92;1.60;;;20.00;79.40;;;;;;5053601;28;20028;-78
2022/07/18 07:02:47;;;;;;;4.60;1.77;;;20.10;79.20;;;;;;5050900;28;20029;-78
2022/07/18 07:05:14;;;;;;;4.97;1.70;;;20.40;78.60;;;;;;5057616;28;20054;-78
2022/07/18 07:07:40;;;;;;;2.38;1.40;;;20.70;77.20;;;;;;5055156;28;20028;-78
2022/07/18 07:10:06;;;;;;;4.13;1.40;;;21.10;74.60;;;;;;5054197;28;20035;-78
2022/07/18 07:12:43;;;;;;;3.95;1.55;;;21.40;72.90;;;;;;5061144;28;20059;-78
2022/07/18 07:15:09;;;;;;;3.92;1.60;;;21.60;71.50;;;;;;5059633;28;20130;-78
2022/07/18 07:17:36;;;;;;;3.10;1.55;;;21.80;70.50;;;;;;5053698;28;20102;-78
2022/07/18 07:20:06;;;;;;;5.80;1.58;;;21.90;68.00;;;;;;5061496;28;20461;-78
2022/07/18 07:22:40;;;;;;;3.85;1.38;;;21.90;69.20;;;;;;5051362;28;20126;-78
2022/07/18 07:25:06;;;;;;;4.53;1.30;;;21.80;70.10;;;;;;5052628;28;20127;-78
2022/07/18 07:27:31;;;;;;;3.33;1.30;;;22.00;70.20;;;;;;5063688;28;20025;-78
2022/07/18 07:29:57;;;;;;;3.72;1.60;;;22.20;69.70;;;;;;5051276;28;20522;-78
2022/07/18 07:32:22;;;;;;;2.10;1.20;;;22.40;69.50;;;;;;5061806;28;20067;-78
2022/07/18 07:34:48;;;;;;;6.30;1.40;;;22.60;68.40;;;;;;5048926;28;20465;-78
2022/07/18 07:37:14;;;;;;;5.40;1.38;;;22.80;67.80;;;;;;5049680;28;20143;-78
2022/07/18 07:39:39;;;;;;;5.13;1.33;;;23.00;67.20;;;;;;5048557;28;20040;-78
2022/07/18 07:42:05;;;;;;;5.80;1.33;;;23.20;66.30;;;;;;5046765;28;20029;-78
2022/07/18 07:44:30;;;;;;;2.63;0.90;;;23.30;64.10;;;;;;5064409;28;20025;-78
2022/07/18 07:46:56;;;;;;;2.40;1.08;;;23.50;63.40;;;;;;5052029;28;20517;-78
2022/07/18 07:49:22;;;;;;;4.63;1.10;;;23.70;63.30;;;;;;5045284;28;20036;-79
2022/07/18 07:51:48;;;;;;;4.97;1.23;;;23.80;64.20;;;;;;5057394;28;20024;-78
2022/07/18 07:54:13;;;;;;;8.23;1.13;;;24.10;62.70;;;;;;5046551;28;20351;-78
2022/07/18 07:56:39;;;;;;;7.00;1.15;;;24.10;60.60;;;;;;5059703;28;20491;-78
2022/07/18 07:59:04;;;;;;;4.85;1.30;;;24.30;58.60;;;;;;5046284;28;20079;-78
2022/07/18 08:01:30;;;;;;;5.30;1.25;;;24.30;59.10;;;;;;5046626;28;20033;-79
2022/07/18 08:03:56;;;;;;;7.28;1.50;;;24.50;58.50;;;;;;5050773;28;20028;-78
2022/07/18 08:06:21;;;;;;;4.55;1.20;;;24.60;58.50;;;;;;5054313;28;20077;-78
2022/07/18 08:08:47;;;;;;;6.72;1.30;;;24.90;57.60;;;;;;5050263;28;20044;-78
2022/07/18 08:11:12;;;;;;;4.93;1.25;;;25.10;57.50;;;;;;5054648;28;20124;-77
2022/07/18 08:13:38;;;;;;;7.65;1.38;;;25.20;57.10;;;;;;5060326;28;20063;-78
2022/07/18 08:16:04;;;;;;;9.55;1.20;;;25.30;57.00;;;;;;5057235;28;20675;-77
2022/07/18 08:18:29;;;;;;;5.72;1.10;;;25.60;56.90;;;;;;5044826;28;20466;-78
2022/07/18 08:20:55;;;;;;;3.85;1.08;;;25.80;53.30;;;;;;5049517;28;20039;-78
2022/07/18 08:23:21;;;;;;;5.15;1.30;;;26.10;52.70;;;;;;5046721;28;20040;-78
2022/07/18 08:25:47;;;;;;;7.38;1.00;;;26.30;52.50;;;;;;5047972;28;20031;-78
2022/07/18 08:28:13;;;;;;;3.05;1.00;;;26.40;52.50;;;;;;5048939;28;20024;-77
2022/07/18 08:30:40;;;;;;;11.23;1.13;;;26.50;52.30;;;;;;5047366;28;20033;-78
2022/07/18 08:33:06;;;;;;;5.38;1.10;;;26.60;52.10;;;;;;5046376;28;20025;-78
2022/07/18 08:35:33;;;;;;;8.95;1.02;;;26.70;51.40;;;;;;5058315;28;20520;-77
2022/07/18 08:38:00;;;;;;;9.27;1.10;;;26.80;51.70;;;;;;5049535;28;20402;-78
2022/07/18 08:40:25;;;;;;;5.53;1.38;;;27.00;51.30;;;;;;5056255;28;20130;-78
2022/07/18 08:42:53;;;;;;;11.32;1.17;;;27.10;50.90;;;;;;5065995;28;20070;-78
2022/07/18 08:45:22;;;;;;;4.63;1.10;;;27.00;49.00;;;;;;5049225;28;20130;-77
2022/07/18 08:47:48;;;;;;;10.00;1.20;;;27.00;49.50;;;;;;5050978;28;20580;-78
2022/07/18 08:50:13;;;;;;;7.90;1.10;;;27.10;49.30;;;;;;5058324;28;20067;-78
2022/07/18 08:52:39;;;;;;;8.60;1.20;;;27.20;49.90;;;;;;5049785;28;20078;-78
2022/07/18 08:55:07;;;;;;;3.42;0.90;;;27.30;49.50;;;;;;5051615;28;20024;-78
2022/07/18 08:57:33;;;;;;;7.40;1.30;;;27.50;48.60;;;;;;5051704;28;20089;-78
2022/07/18 08:59:58;;;;;;;8.15;1.10;;;27.60;49.20;;;;;;5047822;28;20028;-78
2022/07/18 09:02:27;;;;;;;7.30;1.10;;;27.70;48.80;;;;;;5054477;28;20157;-78
2022/07/18 09:04:53;;;;;;;4.45;1.05;;;27.70;48.00;;;;;;5060149;28;20385;-78
2022/07/18 09:07:36;;;;;;;8.18;1.35;;;27.80;47.80;;;;;;5058779;28;20055;-78
2022/07/18 09:10:04;;;;;;;9.35;1.13;;;27.80;47.90;;;;;;5047970;28;20032;-78
2022/07/18 09:12:33;;;;;;;4.55;1.40;;;27.80;47.30;;;;;;5052258;28;20033;-78
2022/07/18 09:15:06;;;;;;;6.30;1.17;;;27.60;47.20;;;;;;5054942;28;20465;-78
2022/07/18 09:17:34;;;;;;;4.32;1.10;;;27.70;47.70;;;;;;5056256;28;20033;-77
2022/07/18 09:20:10;;;;;;;5.07;1.20;;;27.80;47.00;;;;;;5049073;28;20071;-76
2022/07/18 09:22:37;;;;;;;7.35;1.40;;;27.90;45.50;;;;;;5047996;28;20032;-77
2022/07/18 09:25:12;;;;;;;6.82;0.93;;;28.00;46.20;;;;;;5054356;28;20029;-76
2022/07/18 09:27:39;;;;;;;3.72;0.90;;;28.20;45.50;;;;;;5045383;28;20025;-76
2022/07/18 09:30:20;;;;;;;2.78;0.88;;;28.30;44.70;;;;;;5050583;28;20712;-76
2022/07/18 09:32:51;;;;;;;4.93;0.85;;;28.40;44.60;;;;;;5046496;28;20053;-74
2022/07/18 09:35:23;;;;;;;4.40;0.90;;;28.50;43.50;;;;;;5049896;28;20025;-75
2022/07/18 09:38:07;;;;;;;2.75;0.82;;;28.60;44.00;;;;;;5050218;28;20051;-75
2022/07/18 09:40:41;;;;;;;4.32;0.90;;;28.70;43.40;;;;;;5043497;28;20112;-75
2022/07/18 09:43:09;;;;;;;3.03;0.70;;;28.80;42.10;;;;;;5045105;28;20026;-75
2022/07/18 09:45:41;;;;;;;2.90;0.80;;;29.10;42.50;;;;;;5060016;28;20028;-75
2022/07/18 09:48:12;;;;;;;6.43;0.80;;;29.10;43.00;;;;;;5045393;28;20025;-75
2022/07/18 09:50:43;;;;;;;2.75;0.90;;;29.30;43.30;;;;;;5043576;28;20025;-74
2022/07/18 09:53:23;;;;;;;4.70;0.75;;;29.30;42.60;;;;;;5049644;28;20474;-77
2022/07/18 09:55:54;;;;;;;3.10;0.90;;;29.50;41.60;;;;;;5048741;28;20036;-75
2022/07/18 09:58:26;;;;;;;1.75;0.75;;;29.50;41.10;;;;;;5042708;28;20017;-76
2022/07/18 10:00:53;;;;;;;2.28;0.82;;;29.50;41.90;;;;;;5045779;28;20041;-76
2022/07/18 10:03:20;;;;;;;2.67;1.00;;;29.60;41.60;;;;;;5048627;28;20037;-78
2022/07/18 10:05:48;;;;;;;2.67;0.60;;;29.60;41.00;;;;;;5045249;28;20033;-75
2022/07/18 10:08:19;;;;;;;2.45;0.80;;;29.70;40.30;;;;;;5046449;28;20025;-75
2022/07/18 10:10:47;;;;;;;4.03;0.73;;;29.60;40.70;;;;;;5059522;28;20320;-76
2022/07/18 10:13:14;;;;;;;2.47;0.82;;;29.50;41.70;;;;;;5053256;28;20389;-76
2022/07/18 10:15:42;;;;;;;1.77;0.70;;;29.30;41.30;;;;;;5055199;28;20444;-76
2022/07/18 10:18:15;;;;;;;3.08;0.70;;;29.20;41.50;;;;;;5066474;28;20089;-76
2022/07/18 10:20:54;;;;;;;2.85;1.05;;;29.30;41.10;;;;;;5062924;28;20044;-76
2022/07/18 10:23:21;;;;;;;4.22;0.82;;;29.50;41.30;;;;;;5067791;28;20020;-76
2022/07/18 10:26:21;;;;;;;2.10;0.82;;;29.70;41.70;;;;;;5061420;28;20017;-76
2022/07/18 10:28:56;;;;;;;3.92;0.80;;;29.70;40.70;;;;;;5049536;28;20037;-76
2022/07/18 10:31:25;;;;;;;3.80;0.90;;;29.70;41.40;;;;;;5066431;28;20107;-76
2022/07/18 10:33:52;;;;;;;3.00;0.80;;;29.60;41.90;;;;;;5048330;28;20050;-76
2022/07/18 10:36:20;;;;;;;2.60;0.60;;;29.70;41.90;;;;;;5048403;28;20036;-77
2022/07/18 10:39:07;;;;;;;1.98;0.77;;;29.80;41.60;;;;;;5061721;28;20075;-77
2022/07/18 10:41:38;;;;;;;2.22;0.70;;;30.00;41.20;;;;;;5085003;28;20068;-77
2022/07/18 10:44:26;;;;;;;1.70;1.00;;;30.20;40.50;;;;;;5068178;28;20070;-77
2022/07/18 10:47:12;;;;;;;3.92;0.88;;;30.40;40.60;;;;;;5068948;28;20012;-76
2022/07/18 10:49:47;;;;;;;1.98;0.90;;;30.40;40.40;;;;;;5069228;28;20024;-76
2022/07/18 10:52:25;;;;;;;2.50;0.80;;;30.50;40.50;;;;;;5049286;28;20024;-77
2022/07/18 10:55:05;;;;;;;1.58;0.70;;;30.40;39.80;;;;;;5050279;28;20083;-77
2022/07/18 10:57:39;;;;;;;2.63;0.70;;;30.30;40.60;;;;;;5061592;28;20052;-76
2022/07/18 11:00:14;;;;;;;1.90;0.70;;;30.40;40.60;;;;;;5059751;28;20639;-77
2022/07/18 11:02:45;;;;;;;3.35;0.82;;;30.40;40.90;;;;;;5074039;28;20494;-76
2022/07/18 11:05:23;;;;;;;1.58;0.60;;;30.60;40.00;;;;;;5081796;28;20036;-77
2022/07/18 11:08:01;;;;;;;2.78;0.70;;;30.70;40.20;;;;;;5073532;28;20028;-76
2022/07/18 11:10:42;;;;;;;3.15;0.82;;;30.80;41.00;;;;;;5047374;28;20024;-76
2022/07/18 11:13:27;;;;;;;2.88;1.08;;;31.00;40.10;;;;;;5058466;28;20077;-76
2022/07/18 11:16:11;;;;;;;1.75;0.80;;;31.10;40.40;;;;;;5053723;28;20432;-76
2022/07/18 11:18:43;;;;;;;3.05;0.70;;;31.20;38.90;;;;;;5065358;28;20189;-77
2022/07/18 11:21:24;;;;;;;6.28;1.02;;;31.20;39.20;;;;;;5070367;28;20036;-77
2022/07/18 11:23:58;;;;;;;3.63;1.00;;;31.30;39.50;;;;;;5059778;28;20513;-76
2022/07/18 11:26:24;;;;;;;3.55;0.90;;;31.30;39.30;;;;;;5058314;28;20131;-76
2022/07/18 11:29:02;;;;;;;1.63;0.70;;;31.40;39.20;;;;;;5062419;28;20384;-76
2022/07/18 11:31:29;;;;;;;3.42;0.70;;;31.30;38.30;;;;;;5048476;28;20037;-76
2022/07/18 11:33:55;;;;;;;2.58;0.82;;;31.40;38.70;;;;;;5051621;28;20093;-77
2022/07/18 11:36:23;;;;;;;1.77;0.80;;;31.60;38.50;;;;;;5051546;28;20041;-76
2022/07/18 11:38:53;;;;;;;2.15;0.80;;;31.50;38.20;;;;;;5061416;28;20563;-76
2022/07/18 11:41:20;;;;;;;4.60;0.80;;;31.60;38.50;;;;;;5059543;28;20046;-77
2022/07/18 11:43:47;;;;;;;1.20;0.80;;;31.70;38.50;;;;;;5067224;28;20032;-76
2022/07/18 11:46:15;;;;;;;1.33;0.70;;;31.80;37.60;;;;;;5065082;28;20028;-76
2022/07/18 11:48:43;;;;;;;3.25;0.90;;;31.90;37.80;;;;;;5043912;28;20082;-76
2022/07/18 11:51:10;;;;;;;1.67;0.60;;;32.00;37.30;;;;;;5051608;28;20040;-76
2022/07/18 11:53:35;;;;;;;1.60;0.70;;;32.20;37.40;;;;;;5057373;28;20596;-76
2022/07/18 11:56:05;;;;;;;4.43;0.80;;;32.20;37.60;;;;;;5061726;28;20107;-77
2022/07/18 11:58:37;;;;;;;4.38;0.90;;;32.20;36.90;;;;;;5049089;28;20035;-77
2022/07/18 12:01:03;;;;;;;5.38;1.00;;;32.30;37.40;;;;;;5062179;28;20020;-77
2022/07/18 12:03:29;;;;;;;3.40;0.98;;;;;;;;;;5050613;28;20029;-77
2022/07/18 12:05:55;;;;;;;2.60;0.90;;;32.50;36.50;;;;;;5048799;28;21315;-77
2022/07/18 12:08:38;;;;;;;1.77;0.80;;;32.50;36.60;;;;;;5051161;28;20029;-76
2022/07/18 12:11:17;;;;;;;3.22;0.85;;;32.60;37.00;;;;;;5061404;28;20027;-76
2022/07/18 12:13:47;;;;;;;2.85;1.17;;;32.70;36.30;;;;;;5049508;28;20572;-76
2022/07/18 12:16:25;;;;;;;1.02;0.80;;;32.80;35.80;;;;;;5047751;28;20029;-76
2022/07/18 12:18:55;;;;;;;1.20;0.77;;;32.90;36.30;;;;;;5058542;28;20037;-77
2022/07/18 12:21:21;;;;;;;3.88;1.00;;;32.90;35.80;;;;;;5051945;28;20025;-77
2022/07/18 12:23:47;;;;;;;4.60;1.02;;;32.90;36.30;;;;;;5055346;28;20043;-77
2022/07/18 12:26:29;;;;;;;4.25;1.00;;;33.00;35.80;;;;;;5061817;28;20106;-77
2022/07/18 12:29:08;;;;;;;3.63;0.80;;;33.10;36.10;;;;;;5051143;28;20040;-75
2022/07/18 12:31:38;;;;;;;1.37;1.00;;;33.20;36.60;;;;;;4710878;28;9999782;-75
2022/07/18 12:34:19;;;;;;;0.85;0.80;;;33.20;35.40;;;;;;5046329;28;20024;-76
2022/07/18 12:36:52;;;;;;;1.90;0.88;;;33.20;35.00;;;;;;5052755;28;20057;-77
2022/07/18 12:39:32;;;;;;;4.95;0.88;;;33.10;35.50;;;;;;5046983;28;20042;-77
2022/07/18 12:41:59;;;;;;;2.28;0.82;;;33.10;36.20;;;;;;5051403;28;20132;-76
2022/07/18 12:44:26;;;;;;;2.67;0.90;;;33.20;36.30;;;;;;5046829;28;20040;-77
2022/07/18 12:46:52;;;;;;;2.20;0.90;;;33.30;35.90;;;;;;5045992;28;20225;-78
2022/07/18 12:49:17;;;;;;;1.98;1.00;;;33.30;35.30;;;;;;5050086;28;20028;-77
2022/07/18 12:51:43;;;;;;;2.60;0.90;;;33.40;35.60;;;;;;5042412;28;20091;-77